Time;durP1;ratioP1;P1;durP2;ratioP2;P2;SDS_P1;SDS_P2;PMS_P1;PMS_P2;Temp;Humidity;BMP_temperature;BMP_pressure;BME280_temperature;BME280_humidity;BME280_pressure;Samples;Min_cycle;Max_cycle;Signal;HPM_P1;HPM_P2
2023/02/15 00:00:31;;;;;;;;;;;;;;;;;;5073352;28;1914;-43
2023/02/15 00:02:59;;;;;;;;;;;;;;;;;;5073348;28;1352;-41
2023/02/15 00:05:26;;;;;;;;;;;;;;;;;;5073197;28;1063;-44
2023/02/15 00:07:53;;;;;;;;;;;;;;;;;;5073420;28;943;-41
2023/02/15 00:10:20;;;;;;;;;;;;;;;;;;5072144;28;1076;-46
2023/02/15 00:12:47;;;;;;;;;;;;;;;;;;5073174;28;1091;-41
2023/02/15 00:15:15;;;;;;;;;;;;;;;;;;5071965;28;1140;-41
2023/02/15 00:17:42;;;;;;;;;;;;;;;;;;5072857;28;1449;-40
2023/02/15 00:20:09;;;;;;;;;;;;;;;;;;5073002;28;1115;-41
2023/02/15 00:22:36;;;;;;;;;;;;;;;;;;5072960;28;1916;-44
2023/02/15 00:25:04;;;;;;;;;;;;;;;;;;5072895;28;936;-46
2023/02/15 00:27:31;;;;;;;;;;;;;;;;;;5073024;28;995;-42
2023/02/15 00:30:01;;;;;;;;;;;;;;;;;;5072778;28;940;-41
2023/02/15 00:32:29;;;;;;;;;;;;;;;;;;5071563;28;1281;-41
2023/02/15 00:34:56;;;;;;;;;;;;;;;;;;5072214;28;1346;-43
2023/02/15 00:37:24;;;;;;;;;;;;;;;;;;5072827;28;1439;-40
2023/02/15 00:39:51;;;;;;;;;;;;;;;;;;5071192;28;1451;-41
2023/02/15 00:42:18;;;;;;;;;;;;;;;;;;5072606;28;1906;-42
2023/02/15 00:44:46;;;;;;;;;;;;;;;;;;5072189;28;1169;-43
2023/02/15 00:47:13;;;;;;;;;;;;;;;;;;5072372;28;1223;-40
2023/02/15 00:49:40;;;;;;;;;;;;;;;;;;5071464;28;1359;-40
2023/02/15 00:52:07;;;;;;;;;;;;;;;;;;5072594;28;1153;-41
2023/02/15 00:54:34;;;;;;;;;;;;;;;;;;5072344;28;912;-43
2023/02/15 00:57:02;;;;;;;;;;;;;;;;;;5072205;28;885;-43
2023/02/15 00:59:30;;;;;;;;;;;;;;;;;;5072254;28;1156;-42
2023/02/15 01:01:57;;;;;;;;;;;;;;;;;;5072153;28;1916;-44
2023/02/15 01:04:24;;;;;;;;;;;;;;;;;;5090458;28;1412;-41
2023/02/15 01:06:52;;;;;;;;;;;;;;;;;;5091113;28;1212;-43
2023/02/15 01:09:19;;;;;;;;;;;;;;;;;;5092224;28;1115;-40
2023/02/15 01:11:46;;;;;;;;;;;;;;;;;;5092098;28;1110;-42
2023/02/15 01:14:14;;;;;;;;;;;;;;;;;;5091125;28;1329;-44
2023/02/15 01:16:41;;;;;;;;;;;;;;;;;;5092378;28;1306;-44
2023/02/15 01:19:08;;;;;;;;;;;;;;;;;;5092387;28;1059;-41
2023/02/15 01:21:35;;;;;;;;;;;;;;;;;;5090128;28;1967;-47
2023/02/15 01:24:04;;;;;;;;;;;;;;;;;;5090635;28;1233;-43
2023/02/15 01:26:31;;;;;;;;;;;;;;;;;;5091890;28;1043;-39
2023/02/15 01:28:58;;;;;;;;;;;;;;;;;;5090659;28;1280;-40
2023/02/15 01:31:26;;;;;;;;;;;;;;;;;;5091940;28;1347;-39
2023/02/15 01:33:53;;;;;;;;;;;;;;;;;;5091609;28;1306;-39
2023/02/15 01:36:21;;;;;;;;;;;;;;;;;;5091472;28;961;-38
2023/02/15 01:38:49;;;;;;;;;;;;;;;;;;5091782;28;983;-39
2023/02/15 01:41:28;;;;;;;;;;;;;;;;;;5091735;28;1983;-39
2023/02/15 01:44:00;;;;;;;;;;;;;;;;;;5091648;28;1331;-40
2023/02/15 01:46:30;;;;;;;;;;;;;;;;;;5091469;28;993;-39
2023/02/15 01:49:01;;;;;;;;;;;;;;;;;;5091845;28;1196;-39
2023/02/15 01:51:31;;;;;;;;;;;;;;;;;;5090378;28;1246;-38
2023/02/15 01:54:05;;;;;;;;;;;;;;;;;;5091591;28;1106;-39
2023/02/15 01:56:35;;;;;;;;;;;;;;;;;;5081223;28;1122;-46
2023/02/15 01:59:06;;;;;;;;;;;;;;;;;;5071064;28;1317;-39
2023/02/15 02:01:33;;;;;;;;;;;;;;;;;;5071207;28;1906;-45
2023/02/15 02:04:30;;;;;;;;;;;;;;;;;;5086122;28;1392;-39
2023/02/15 02:06:57;;;;;;;;;;;;;;;;;;5077465;28;1296;-40
2023/02/15 02:09:25;;;;;;;;;;;;;;;;;;5091244;28;984;-41
2023/02/15 02:11:54;;;;;;;;;;;;;;;;;;5091483;28;1180;-43
2023/02/15 02:14:22;;;;;;;;;;;;;;;;;;5091331;28;1431;-43
2023/02/15 02:16:58;;;;;;;;;;;;;;;;;;5089863;28;1291;-41
2023/02/15 02:19:45;;;;;;;;;;;;;;;;;;5091233;28;1464;-43
2023/02/15 02:22:16;;;;;;;;;;;;;;;;;;5089860;28;1997;-40
2023/02/15 02:24:54;;;;;;;;;;;;;;;;;;5089755;28;1251;-40
2023/02/15 02:27:28;;;;;;;;;;;;;;;;;;5089799;28;1215;-44
2023/02/15 02:30:11;;;;;;;;;;;;;;;;;;5073874;28;1178;-40
2023/02/15 02:32:58;;;;;;;;;;;;;;;;;;5069548;28;1277;-40
2023/02/15 02:35:31;;;;;;;;;;;;;;;;;;5074296;28;1072;-43
2023/02/15 02:38:17;;;;;;;;;;;;;;;;;;5074715;28;1061;-41
2023/02/15 02:40:59;;;;;;;;;;;;;;;;;;5075155;28;1168;-40
2023/02/15 02:43:49;;;;;;;;;;;;;;;;;;5074553;28;929;-39
2023/02/15 02:46:26;;;;;;;;;;;;;;;;;;5074799;28;973;-39
2023/02/15 02:48:54;;;;;;;;;;;;;;;;;;5073528;28;1784;-41
2023/02/15 02:51:22;;;;;;;;;;;;;;;;;;5074759;28;1065;-43
2023/02/15 02:53:51;;;;;;;;;;;;;;;;;;5074648;28;1120;-41
2023/02/15 02:56:25;;;;;;;;;;;;;;;;;;5074927;28;1173;-42
2023/02/15 02:59:04;;;;;;;;;;;;;;;;;;5073012;28;1249;-41
2023/02/15 03:01:34;;;;;;;;;;;;;;;;;;5073198;28;1901;-39
2023/02/15 03:04:09;;;;;;;;;;;;;;;;;;5089635;28;1487;-40
2023/02/15 03:06:40;;;;;;;;;;;;;;;;;;5094713;28;979;-40
2023/02/15 03:09:16;;;;;;;;;;;;;;;;;;5093233;28;1096;-40
2023/02/15 03:11:44;;;;;;;;;;;;;;;;;;5094556;28;1222;-42
2023/02/15 03:14:14;;;;;;;;;;;;;;;;;;5093383;28;1505;-41
2023/02/15 03:16:43;;;;;;;;;;;;;;;;;;5094392;28;1311;-40
2023/02/15 03:19:14;;;;;;;;;;;;;;;;;;5093222;28;1266;-39
2023/02/15 03:21:57;;;;;;;;;;;;;;;;;;5094039;28;1907;-41
2023/02/15 03:24:31;;;;;;;;;;;;;;;;;;5092762;28;2176;-39
2023/02/15 03:26:59;;;;;;;;;;;;;;;;;;5092875;28;1086;-38
2023/02/15 03:29:27;;;;;;;;;;;;;;;;;;5094254;28;1250;-43
2023/02/15 03:31:59;;;;;;;;;;;;;;;;;;5094223;28;1059;-41
2023/02/15 03:34:26;;;;;;;;;;;;;;;;;;5093972;28;1185;-41
2023/02/15 03:37:11;;;;;;;;;;;;;;;;;;5094200;28;1011;-42
2023/02/15 03:39:44;;;;;;;;;;;;;;;;;;5094014;28;948;-41
2023/02/15 03:42:28;;;;;;;;;;;;;;;;;;5092652;28;1907;-40
2023/02/15 03:45:14;;;;;;;;;;;;;;;;;;5093655;28;956;-40
2023/02/15 03:47:43;;;;;;;;;;;;;;;;;;5093893;28;919;-39
2023/02/15 03:53:11;;;;;;;;;;;;;;;;;;5093743;28;1106;-39
2023/02/15 03:55:38;;;;;;;;;;;;;;;;;;5093587;28;971;-41
2023/02/15 04:03:45;;;;;;;;;;;;;;;;;;5079545;28;1391;-41
2023/02/15 04:06:12;;;;;;;;;;;;;;;;;;5073390;28;1247;-43
2023/02/15 04:11:27;;;;;;;;;;;;;;;;;;5093311;28;1171;-40
2023/02/15 04:13:56;;;;;;;;;;;;;;;;;;5093349;28;932;-39
2023/02/15 04:16:23;;;;;;;;;;;;;;;;;;5093494;28;983;-40
2023/02/15 04:27:08;;;;;;;;;;;;;;;;;;5075317;28;2073;-38
2023/02/15 04:29:36;;;;;;;;;;;;;;;;;;5072843;28;911;-42
2023/02/15 04:32:03;;;;;;;;;;;;;;;;;;5072581;28;1083;-42
2023/02/15 04:34:30;;;;;;;;;;;;;;;;;;5072659;28;1321;-43
2023/02/15 04:36:57;;;;;;;;;;;;;;;;;;5072777;28;1005;-41
2023/02/15 04:39:24;;;;;;;;;;;;;;;;;;5072556;28;983;-40
2023/02/15 04:41:52;;;;;;;;;;;;;;;;;;5072800;28;1975;-42
2023/02/15 04:44:19;;;;;;;;;;;;;;;;;;5072091;28;1072;-42
2023/02/15 04:46:46;;;;;;;;;;;;;;;;;;5072242;28;955;-39
2023/02/15 04:49:13;;;;;;;;;;;;;;;;;;5072531;28;1193;-40
2023/02/15 04:51:40;;;;;;;;;;;;;;;;;;5072447;28;1074;-40
2023/02/15 04:54:07;;;;;;;;;;;;;;;;;;5072460;28;960;-41
2023/02/15 04:56:37;;;;;;;;;;;;;;;;;;5071614;28;1079;-40
2023/02/15 04:59:04;;;;;;;;;;;;;;;;;;5072062;28;1190;-47
2023/02/15 05:01:32;;;;;;;;;;;;;;;;;;5072147;28;1898;-48
2023/02/15 05:04:08;;;;;;;;;;;;;;;;;;5089303;28;1364;-45
2023/02/15 05:06:35;;;;;;;;;;;;;;;;;;5092306;28;1129;-44
2023/02/15 05:09:02;;;;;;;;;;;;;;;;;;5092153;28;1287;-39
2023/02/15 05:11:29;;;;;;;;;;;;;;;;;;5092143;28;1020;-45
2023/02/15 05:13:58;;;;;;;;;;;;;;;;;;5092408;28;1175;-40
2023/02/15 05:16:27;;;;;;;;;;;;;;;;;;5092615;28;1148;-40
2023/02/15 05:18:54;;;;;;;;;;;;;;;;;;5092345;28;1082;-39
2023/02/15 05:21:21;;;;;;;;;;;;;;;;;;5092130;28;1029;-41
2023/02/15 05:23:48;;;;;;;;;;;;;;;;;;5091968;28;1980;-45
2023/02/15 05:29:03;;;;;;;;;;;;;;;;;;5091869;28;1042;-44
2023/02/15 05:31:31;;;;;;;;;;;;;;;;;;5092063;28;912;-40
2023/02/15 05:33:58;;;;;;;;;;;;;;;;;;5091880;28;1187;-40
2023/02/15 05:36:25;;;;;;;;;;;;;;;;;;5091705;28;911;-42
2023/02/15 05:38:52;;;;;;;;;;;;;;;;;;5091631;28;1147;-45
2023/02/15 05:41:20;;;;;;;;;;;;;;;;;;5091695;28;1187;-41
2023/02/15 05:43:47;;;;;;;;;;;;;;;;;;5090508;28;1981;-42
2023/02/15 05:46:14;;;;;;;;;;;;;;;;;;5091523;28;962;-43
2023/02/15 05:48:41;;;;;;;;;;;;;;;;;;5091625;28;1106;-42
2023/02/15 05:51:09;;;;;;;;;;;;;;;;;;5091496;28;1136;-42
2023/02/15 05:53:37;;;;;;;;;;;;;;;;;;5091596;28;1320;-42
2023/02/15 05:56:06;;;;;;;;;;;;;;;;;;5091636;28;1284;-41
2023/02/15 05:58:37;;;;;;;;;;;;;;;;;;5091390;28;1065;-43
2023/02/15 06:01:12;;;;;;;;;;;;;;;;;;5091601;28;1201;-47
2023/02/15 06:03:40;;;;;;;;;;;;;;;;;;5070423;28;9721;-40
2023/02/15 06:06:08;;;;;;;;;;;;;;;;;;5051020;28;935;-43
2023/02/15 06:08:36;;;;;;;;;;;;;;;;;;5037850;28;1549;-41
2023/02/15 06:11:03;;;;;;;;;;;;;;;;;;5050923;28;992;-39
2023/02/15 06:13:31;;;;;;;;;;;;;;;;;;5051007;28;1104;-40
2023/02/15 06:15:58;;;;;;;;;;;;;;;;;;5051227;28;1021;-38
2023/02/15 06:18:26;;;;;;;;;;;;;;;;;;5051374;28;1972;-41
2023/02/15 06:20:53;;;;;;;;;;;;;;;;;;5051190;28;1973;-41
2023/02/15 06:23:20;;;;;;;;;;;;;;;;;;5050812;28;1976;-43
2023/02/15 06:25:47;;;;;;;;;;;;;;;;;;5050775;28;2376;-40
2023/02/15 06:28:14;;;;;;;;;;;;;;;;;;5050808;28;1725;-40
2023/02/15 06:30:41;;;;;;;;;;;;;;;;;;5050657;28;1781;-40
2023/02/15 06:33:08;;;;;;;;;;;;;;;;;;5050811;28;1974;-40
2023/02/15 06:35:36;;;;;;;;;;;;;;;;;;5032822;28;2209;-41
2023/02/15 06:38:03;;;;;;;;;;;;;;;;;;5050877;28;2145;-39
2023/02/15 06:40:30;;;;;;;;;;;;;;;;;;5051130;28;1952;-39
2023/02/15 06:42:57;;;;;;;;;;;;;;;;;;5032952;28;2011;-45
2023/02/15 06:45:24;;;;;;;;;;;;;;;;;;5049390;28;2036;-41
2023/02/15 06:47:51;;;;;;;;;;;;;;;;;;5031485;28;1672;-42
2023/02/15 06:50:18;;;;;;;;;;;;;;;;;;5050346;28;1630;-40
2023/02/15 06:52:46;;;;;;;;;;;;;;;;;;5050328;28;2159;-40
2023/02/15 06:55:13;;;;;;;;;;;;;;;;;;5050848;28;1971;-41
2023/02/15 06:57:40;;;;;;;;;;;;;;;;;;5050620;28;1799;-40
2023/02/15 07:00:08;;;;;;;;;;;;;;;;;;5050646;28;1772;-40
2023/02/15 07:02:35;;;;;;;;;;;;;;;;;;5050528;28;2232;-40
2023/02/15 07:05:04;;;;;;;;;;;;;;;;;;5050963;28;1988;-39
2023/02/15 07:07:32;;;;;;;;;;;;;;;;;;5050909;28;1685;-41
2023/02/15 07:09:59;;;;;;;;;;;;;;;;;;5032949;28;2086;-39
2023/02/15 07:12:41;;;;;;;;;;;;;;;;;;5050670;28;1786;-41
2023/02/15 07:15:09;;;;;;;;;;;;;;;;;;5050473;28;2088;-42
2023/02/15 07:17:36;;;;;;;;;;;;;;;;;;5050727;28;1854;-39
2023/02/15 07:20:05;;;;;;;;;;;;;;;;;;5051667;28;1988;-40
2023/02/15 07:22:33;;;;;;;;;;;;;;;;;;5054117;28;2139;-45
2023/02/15 07:25:01;;;;;;;;;;;;;;;;;;5054181;28;1853;-40
2023/02/15 07:27:28;;;;;;;;;;;;;;;;;;5053891;28;1838;-39
2023/02/15 07:29:55;;;;;;;;;;;;;;;;;;5053697;28;1862;-40
2023/02/15 07:32:22;;;;;;;;;;;;;;;;;;5053942;28;1862;-40
2023/02/15 07:34:50;;;;;;;;;;;;;;;;;;5054108;28;2093;-40
2023/02/15 07:37:17;;;;;;;;;;;;;;;;;;5053913;28;1953;-43
2023/02/15 07:39:44;;;;;;;;;;;;;;;;;;5053891;28;1869;-40
2023/02/15 07:42:11;;;;;;;;;;;;;;;;;;5053955;28;2126;-41
2023/02/15 07:44:38;;;;;;;;;;;;;;;;;;5053674;28;2256;-40
2023/02/15 07:47:06;;;;;;;;;;;;;;;;;;5053969;28;1465;-40
2023/02/15 07:49:33;;;;;;;;;;;;;;;;;;5053988;28;2077;-41
2023/02/15 07:52:00;;;;;;;;;;;;;;;;;;5053300;28;2080;-43
2023/02/15 07:54:28;;;;;;;;;;;;;;;;;;5053670;28;1602;-41
2023/02/15 07:56:55;;;;;;;;;;;;;;;;;;5053783;28;1861;-41
2023/02/15 07:59:23;;;;;;;;;;;;;;;;;;5053402;28;2020;-40
2023/02/15 08:01:52;;;;;;;;;;;;;;;;;;5035495;28;1804;-43
2023/02/15 08:04:19;;;;;;;;;;;;;;;;;;5052640;28;2300;-41
2023/02/15 08:06:46;;;;;;;;;;;;;;;;;;5053480;28;2016;-44
2023/02/15 08:09:14;;;;;;;;;;;;;;;;;;5053514;28;1834;-39
2023/02/15 08:11:42;;;;;;;;;;;;;;;;;;5053181;28;1720;-40
2023/02/15 08:14:11;;;;;;;;;;;;;;;;;;5053207;28;1574;-40
2023/02/15 08:16:42;;;;;;;;;;;;;;;;;;5053012;28;1671;-40
2023/02/15 08:19:13;;;;;;;;;;;;;;;;;;5052902;28;1944;-40
2023/02/15 08:21:41;;;;;;;;;;;;;;;;;;5053132;28;1962;-42
2023/02/15 08:24:09;;;;;;;;;;;;;;;;;;5053150;28;1966;-40
2023/02/15 08:26:38;;;;;;;;;;;;;;;;;;5053105;28;1581;-40
2023/02/15 08:29:08;;;;;;;;;;;;;;;;;;5053019;28;2114;-41
2023/02/15 08:31:37;;;;;;;;;;;;;;;;;;5051651;28;1756;-40
2023/02/15 08:34:05;;;;;;;;;;;;;;;;;;5052906;28;2064;-41
2023/02/15 08:36:32;;;;;;;;;;;;;;;;;;5052694;28;1553;-45
2023/02/15 08:39:00;;;;;;;;;;;;;;;;;;5052667;28;1899;-41
2023/02/15 08:41:29;;;;;;;;;;;;;;;;;;5052635;28;2164;-40
2023/02/15 08:43:58;;;;;;;;;;;;;;;;;;5052568;28;2074;-40
2023/02/15 08:46:26;;;;;;;;;;;;;;;;;;5052653;28;1830;-40
2023/02/15 08:48:54;;;;;;;;;;;;;;;;;;5034656;28;1997;-41
2023/02/15 08:51:23;;;;;;;;;;;;;;;;;;5052441;28;1795;-43
2023/02/15 08:53:51;;;;;;;;;;;;;;;;;;5052351;28;2097;-42
2023/02/15 08:56:19;;;;;;;;;;;;;;;;;;5052487;28;1378;-41
2023/02/15 08:58:47;;;;;;;;;;;;;;;;;;5052057;28;1695;-41
2023/02/15 09:01:19;;;;;;;;;;;;;;;;;;5052298;28;2027;-40
2023/02/15 09:03:49;;;;;;;;;;;;;;;;;;5066444;28;2212;-39
2023/02/15 09:06:17;;;;;;;;;;;;;;;;;;5072190;28;2080;-40
2023/02/15 09:08:44;;;;;;;;;;;;;;;;;;5072187;28;1524;-39
2023/02/15 09:11:12;;;;;;;;;;;;;;;;;;5072091;28;1737;-41
2023/02/15 09:13:40;;;;;;;;;;;;;;;;;;5072247;28;1898;-40
2023/02/15 09:16:08;;;;;;;;;;;;;;;;;;5072048;28;1981;-40
2023/02/15 09:18:37;;;;;;;;;;;;;;;;;;5071876;28;1853;-42
2023/02/15 09:21:08;;;;;;;;;;;;;;;;;;5071870;28;1828;-39
2023/02/15 09:23:35;;;;;;;;;;;;;;;;;;5071648;28;1975;-41
2023/02/15 09:26:05;;;;;;;;;;;;;;;;;;5071532;28;1980;-43
2023/02/15 09:28:33;;;;;;;;;;;;;;;;;;5071564;28;2046;-44
2023/02/15 09:31:14;;;;;;;;;;;;;;;;;;5071406;28;1729;-40
2023/02/15 09:33:43;;;;;;;;;;;;;;;;;;5071735;28;2038;-41
2023/02/15 09:36:15;;;;;;;;;;;;;;;;;;5071578;28;1852;-41
2023/02/15 09:38:43;;;;;;;;;;;;;;;;;;5071654;28;1805;-39
2023/02/15 09:41:36;;;;;;;;;;;;;;;;;;5071734;28;2332;-41
2023/02/15 09:44:15;;;;;;;;;;;;;;;;;;5071031;28;1903;-41
2023/02/15 09:47:01;;;;;;;;;;;;;;;;;;5071516;28;1704;-43
2023/02/15 09:49:35;;;;;;;;;;;;;;;;;;5071455;28;1942;-41
2023/02/15 09:52:12;;;;;;;;;;;;;;;;;;5071057;28;1981;-41
2023/02/15 09:54:56;;;;;;;;;;;;;;;;;;5071654;28;1715;-40
2023/02/15 09:57:30;;;;;;;;;;;;;;;;;;5052978;28;1998;-41
2023/02/15 10:00:17;;;;;;;;;;;;;;;;;;5071477;28;1981;-40
2023/02/15 10:03:05;;;;;;;;;;;;;;;;;;5050355;28;1444;-42
2023/02/15 10:05:39;;;;;;;;;;;;;;;;;;5071292;28;2052;-41
2023/02/15 10:08:21;;;;;;;;;;;;;;;;;;5071318;28;1461;-40
2023/02/15 10:11:38;;;;;;;;;;;;;;;;;;5071258;28;2000;-40
2023/02/15 10:14:08;;;;;;;;;;;;;;;;;;5071165;28;1845;-38
2023/02/15 10:16:43;;;;;;;;;;;;;;;;;;5070964;28;1984;-40
2023/02/15 10:19:19;;;;;;;;;;;;;;;;;;5070866;28;1959;-41
2023/02/15 10:21:52;;;;;;;;;;;;;;;;;;5070939;28;2011;-44
2023/02/15 10:24:34;;;;;;;;;;;;;;;;;;5070989;28;1978;-40
2023/02/15 10:27:13;;;;;;;;;;;;;;;;;;5070640;28;2124;-40
2023/02/15 10:30:04;;;;;;;;;;;;;;;;;;5070848;28;2004;-40
2023/02/15 10:32:34;;;;;;;;;;;;;;;;;;5065627;28;2156;-40
2023/02/15 10:35:23;;;;;;;;;;;;;;;;;;5070748;28;1846;-41
2023/02/15 10:37:59;;;;;;;;;;;;;;;;;;5070850;28;2149;-40
2023/02/15 10:40:36;;;;;;;;;;;;;;;;;;5070649;28;2056;-40
2023/02/15 10:43:14;;;;;;;;;;;;;;;;;;5086757;28;2054;-40
2023/02/15 10:45:41;;;;;;;;;;;;;;;;;;5090911;28;2064;-46
2023/02/15 10:48:08;;;;;;;;;;;;;;;;;;5090922;28;1846;-41
2023/02/15 10:50:39;;;;;;;;;;;;;;;;;;5090919;28;2140;-40
2023/02/15 10:53:15;;;;;;;;;;;;;;;;;;5090477;28;2395;-40
2023/02/15 10:56:01;;;;;;;;;;;;;;;;;;5093043;28;1972;-41
2023/02/15 10:58:33;;;;;;;;;;;;;;;;;;5076484;28;1961;-45
2023/02/15 11:01:23;;;;;;;;;;;;;;;;;;5094906;28;1996;-40
2023/02/15 11:04:09;;;;;;;;;;;;;;;;;;5079592;28;2305;-41
2023/02/15 11:06:39;;;;;;;;;;;;;;;;;;5074533;28;2056;-40
2023/02/15 11:09:11;;;;;;;;;;;;;;;;;;5074149;28;2001;-42
2023/02/15 11:11:42;;;;;;;;;;;;;;;;;;5056309;28;1863;-40
2023/02/15 11:14:29;;;;;;;;;;;;;;;;;;5074207;28;1508;-39
2023/02/15 11:16:59;;;;;;;;;;;;;;;;;;5066941;28;1858;-41
2023/02/15 11:19:31;;;;;;;;;;;;;;;;;;5074152;28;1823;-42
2023/02/15 11:22:00;;;;;;;;;;;;;;;;;;5073923;28;2019;-41
2023/02/15 11:24:29;;;;;;;;;;;;;;;;;;5073959;28;1966;-40
2023/02/15 11:26:59;;;;;;;;;;;;;;;;;;5074145;28;2015;-42
2023/02/15 11:29:31;;;;;;;;;;;;;;;;;;5073911;28;1865;-40
2023/02/15 11:32:19;;;;;;;;;;;;;;;;;;5074020;28;1636;-40
2023/02/15 11:35:06;;;;;;;;;;;;;;;;;;5073651;28;1585;-40
2023/02/15 11:37:36;;;;;;;;;;;;;;;;;;5060514;28;1415;-40
2023/02/15 11:40:14;;;;;;;;;;;;;;;;;;5073890;28;1316;-39
2023/02/15 11:42:44;;;;;;;;;;;;;;;;;;5073764;28;2097;-41
2023/02/15 11:45:21;;;;;;;;;;;;;;;;;;5073491;28;1964;-41
2023/02/15 11:47:48;;;;;;;;;;;;;;;;;;5074006;28;2049;-40
2023/02/15 11:50:18;;;;;;;;;;;;;;;;;;5073641;28;1905;-40
2023/02/15 11:52:45;;;;;;;;;;;;;;;;;;5073564;28;1807;-40
2023/02/15 11:55:14;;;;;;;;;;;;;;;;;;5073615;28;1818;-41
2023/02/15 11:57:43;;;;;;;;;;;;;;;;;;5073184;28;1764;-40
2023/02/15 12:00:14;;;;;;;;;;;;;;;;;;5073447;28;1757;-41
2023/02/15 12:02:45;;;;;;;;;;;;;;;;;;5068099;28;1868;-41
2023/02/15 12:05:18;;;;;;;;;;;;;;;;;;5053053;28;1906;-43
2023/02/15 12:07:49;;;;;;;;;;;;;;;;;;5052849;28;1936;-42
2023/02/15 12:10:20;;;;;;;;;;;;;;;;;;5052980;28;1484;-42
2023/02/15 12:12:53;;;;;;;;;;;;;;;;;;5053348;28;1495;-42
2023/02/15 12:15:30;;;;;;;;;;;;;;;;;;5053148;28;2315;-40
2023/02/15 12:17:57;;;;;;;;;;;;;;;;;;5035384;28;1890;-41
2023/02/15 12:20:28;;;;;;;;;;;;;;;;;;5052941;28;2056;-44
2023/02/15 12:23:02;;;;;;;;;;;;;;;;;;5053056;28;2037;-41
2023/02/15 12:25:35;;;;;;;;;;;;;;;;;;5052808;28;1993;-41
2023/02/15 12:28:04;;;;;;;;;;;;;;;;;;5052683;28;1731;-42
2023/02/15 12:30:34;;;;;;;;;;;;;;;;;;5052867;28;1799;-40
2023/02/15 12:33:17;;;;;;;;;;;;;;;;;;5052928;28;2020;-40
2023/02/15 12:35:44;;;;;;;;;;;;;;;;;;5052146;28;1816;-40
2023/02/15 12:38:11;;;;;;;;;;;;;;;;;;5052771;28;2006;-40
2023/02/15 12:40:39;;;;;;;;;;;;;;;;;;5052449;28;2118;-41
2023/02/15 12:43:27;;;;;;;;;;;;;;;;;;5052764;28;1998;-40
2023/02/15 12:46:12;;;;;;;;;;;;;;;;;;5052705;28;1916;-40
2023/02/15 12:48:39;;;;;;;;;;;;;;;;;;5052425;28;1859;-41
2023/02/15 12:51:08;;;;;;;;;;;;;;;;;;5052545;28;1914;-39
2023/02/15 12:53:36;;;;;;;;;;;;;;;;;;5052415;28;1933;-40
2023/02/15 12:56:04;;;;;;;;;;;;;;;;;;5034771;28;1995;-40
2023/02/15 12:58:35;;;;;;;;;;;;;;;;;;5052363;28;1907;-41
2023/02/15 13:01:09;;;;;;;;;;;;;;;;;;5052450;28;2028;-40
2023/02/15 13:03:38;;;;;;;;;;;;;;;;;;5052254;28;2312;-44
2023/02/15 13:06:07;;;;;;;;;;;;;;;;;;5052269;28;1940;-40
2023/02/15 13:08:39;;;;;;;;;;;;;;;;;;5034044;28;2049;-41
2023/02/15 13:11:09;;;;;;;;;;;;;;;;;;5052420;28;2084;-40
2023/02/15 13:13:55;;;;;;;;;;;;;;;;;;5052015;28;1932;-40
2023/02/15 13:16:29;;;;;;;;;;;;;;;;;;5052163;28;2091;-44
2023/02/15 13:18:57;;;;;;;;;;;;;;;;;;5051267;28;1890;-42
2023/02/15 13:21:32;;;;;;;;;;;;;;;;;;5052158;28;2235;-45
2023/02/15 13:24:16;;;;;;;;;;;;;;;;;;5051705;28;1979;-40
2023/02/15 13:26:46;;;;;;;;;;;;;;;;;;5051814;28;1395;-41
2023/02/15 13:29:18;;;;;;;;;;;;;;;;;;5051806;28;1376;-44
2023/02/15 13:31:45;;;;;;;;;;;;;;;;;;5051582;28;1807;-41
2023/02/15 13:34:19;;;;;;;;;;;;;;;;;;5051570;28;1955;-40
2023/02/15 13:36:54;;;;;;;;;;;;;;;;;;5051560;28;1867;-41
2023/02/15 13:39:27;;;;;;;;;;;;;;;;;;5051496;28;1840;-40
2023/02/15 13:42:03;;;;;;;;;;;;;;;;;;5051485;28;1769;-41
2023/02/15 13:44:33;;;;;;;;;;;;;;;;;;5051444;28;1906;-40
2023/02/15 13:47:30;;;;;;;;;;;;;;;;;;5051129;28;1711;-44
2023/02/15 13:50:00;;;;;;;;;;;;;;;;;;5014832;28;1589;-45
2023/02/15 13:52:29;;;;;;;;;;;;;;;;;;5051448;28;1583;-40
2023/02/15 13:54:56;;;;;;;;;;;;;;;;;;5051477;28;1496;-40
2023/02/15 13:57:33;;;;;;;;;;;;;;;;;;5051262;28;2288;-41
2023/02/15 14:00:20;;;;;;;;;;;;;;;;;;5050898;28;1699;-42
2023/02/15 14:03:04;;;;;;;;;;;;;;;;;;5039609;28;1614;-42
2023/02/15 14:05:38;;;;;;;;;;;;;;;;;;5071050;28;2180;-41
2023/02/15 14:08:09;;;;;;;;;;;;;;;;;;5071115;28;1683;-41
2023/02/15 14:10:59;;;;;;;;;;;;;;;;;;5070918;28;2308;-41
2023/02/15 14:13:36;;;;;;;;;;;;;;;;;;5070996;28;1937;-41
2023/02/15 14:16:08;;;;;;;;;;;;;;;;;;5071054;28;1767;-41
2023/02/15 14:18:44;;;;;;;;;;;;;;;;;;5070960;28;1883;-41
2023/02/15 14:21:30;;;;;;;;;;;;;;;;;;5071012;28;1959;-43
2023/02/15 14:24:13;;;;;;;;;;;;;;;;;;5071130;28;2122;-40
2023/02/15 14:26:47;;;;;;;;;;;;;;;;;;5070650;28;1995;-43
2023/02/15 14:29:29;;;;;;;;;;;;;;;;;;5071117;28;2188;-42
2023/02/15 14:32:05;;;;;;;;;;;;;;;;;;5075252;28;1680;-43
2023/02/15 14:34:42;;;;;;;;;;;;;;;;;;5057114;28;2052;-41
2023/02/15 14:37:11;;;;;;;;;;;;;;;;;;5074969;28;1621;-44
2023/02/15 14:42:52;;;;;;;;;;;;;;;;;;5051544;28;1614;-41
2023/02/15 14:45:31;;;;;;;;;;;;;;;;;;5074712;28;2140;-44
2023/02/15 14:48:17;;;;;;;;;;;;;;;;;;5074831;28;1686;-44
2023/02/15 14:50:46;;;;;;;;;;;;;;;;;;5074843;28;1970;-41
2023/02/15 14:53:32;;;;;;;;;;;;;;;;;;5074756;28;2148;-40
2023/02/15 14:56:07;;;;;;;;;;;;;;;;;;5074975;28;1881;-40
2023/02/15 14:58:35;;;;;;;;;;;;;;;;;;5074394;28;1668;-40
2023/02/15 15:01:07;;;;;;;;;;;;;;;;;;5074682;28;1952;-44
2023/02/15 15:03:38;;;;;;;;;;;;;;;;;;5067054;28;2184;-41
2023/02/15 15:06:05;;;;;;;;;;;;;;;;;;5072383;28;1906;-45
2023/02/15 15:08:36;;;;;;;;;;;;;;;;;;5072449;28;1856;-42
2023/02/15 15:11:26;;;;;;;;;;;;;;;;;;5072342;28;1932;-44
2023/02/15 15:14:09;;;;;;;;;;;;;;;;;;5072435;28;2035;-44
2023/02/15 15:16:36;;;;;;;;;;;;;;;;;;5054395;28;1751;-44
2023/02/15 15:19:08;;;;;;;;;;;;;;;;;;5072469;28;1718;-42
2023/02/15 15:21:55;;;;;;;;;;;;;;;;;;5074153;28;2078;-40
2023/02/15 15:24:38;;;;;;;;;;;;;;;;;;5056203;28;1985;-40
2023/02/15 15:27:23;;;;;;;;;;;;;;;;;;5074268;28;1941;-40
2023/02/15 15:29:51;;;;;;;;;;;;;;;;;;5073935;28;2004;-42
2023/02/15 15:32:24;;;;;;;;;;;;;;;;;;5073893;28;1772;-42
2023/02/15 15:35:19;;;;;;;;;;;;;;;;;;5073660;28;1538;-42
2023/02/15 15:37:58;;;;;;;;;;;;;;;;;;5058091;28;1694;-41
2023/02/15 15:40:47;;;;;;;;;;;;;;;;;;5073224;28;2117;-40
2023/02/15 15:43:33;;;;;;;;;;;;;;;;;;5073796;28;1786;-43
2023/02/15 15:46:04;;;;;;;;;;;;;;;;;;5073403;28;1919;-46
2023/02/15 15:48:33;;;;;;;;;;;;;;;;;;5073813;28;1698;-43
2023/02/15 15:51:02;;;;;;;;;;;;;;;;;;5073437;28;2497;-41
2023/02/15 15:53:31;;;;;;;;;;;;;;;;;;5073646;28;1715;-44
2023/02/15 15:56:01;;;;;;;;;;;;;;;;;;5073672;28;2222;-41
2023/02/15 15:58:31;;;;;;;;;;;;;;;;;;5073410;28;1358;-42
2023/02/15 16:01:03;;;;;;;;;;;;;;;;;;5073373;28;2364;-40
2023/02/15 16:03:30;;;;;;;;;;;;;;;;;;5061254;28;2708;-40
2023/02/15 16:05:59;;;;;;;;;;;;;;;;;;5053162;28;1918;-41
2023/02/15 16:08:35;;;;;;;;;;;;;;;;;;5053313;28;1984;-41
2023/02/15 16:11:17;;;;;;;;;;;;;;;;;;5053082;28;1822;-42
2023/02/15 16:13:44;;;;;;;;;;;;;;;;;;5053142;28;2318;-41
2023/02/15 16:16:13;;;;;;;;;;;;;;;;;;5052798;28;1941;-42
2023/02/15 16:18:42;;;;;;;;;;;;;;;;;;5053096;28;1966;-45
2023/02/15 16:21:16;;;;;;;;;;;;;;;;;;5052962;28;1720;-40
2023/02/15 16:23:43;;;;;;;;;;;;;;;;;;5052890;28;2033;-39
2023/02/15 16:26:30;;;;;;;;;;;;;;;;;;5053013;28;1979;-43
2023/02/15 16:28:58;;;;;;;;;;;;;;;;;;5053134;28;2062;-44
2023/02/15 16:31:25;;;;;;;;;;;;;;;;;;5052920;28;1861;-44
2023/02/15 16:33:53;;;;;;;;;;;;;;;;;;5052514;28;2073;-46
2023/02/15 16:36:20;;;;;;;;;;;;;;;;;;5052699;28;2009;-44
2023/02/15 16:38:49;;;;;;;;;;;;;;;;;;5052685;28;1494;-49
2023/02/15 16:41:20;;;;;;;;;;;;;;;;;;5052631;28;1683;-46
2023/02/15 16:43:49;;;;;;;;;;;;;;;;;;5052547;28;1681;-44
2023/02/15 16:46:27;;;;;;;;;;;;;;;;;;5052474;28;2223;-46
2023/02/15 16:48:56;;;;;;;;;;;;;;;;;;5034485;28;2120;-42
2023/02/15 16:51:25;;;;;;;;;;;;;;;;;;5052327;28;2223;-44
2023/02/15 16:53:55;;;;;;;;;;;;;;;;;;5033648;28;2159;-41
2023/02/15 16:56:23;;;;;;;;;;;;;;;;;;5034619;28;2038;-45
2023/02/15 16:58:52;;;;;;;;;;;;;;;;;;5052437;28;2095;-42
2023/02/15 17:01:21;;;;;;;;;;;;;;;;;;5052266;28;1373;-44
2023/02/15 17:03:49;;;;;;;;;;;;;;;;;;5052108;28;2222;-40
2023/02/15 17:06:26;;;;;;;;;;;;;;;;;;5052181;28;2096;-48
2023/02/15 17:09:02;;;;;;;;;;;;;;;;;;5052126;28;1761;-48
2023/02/15 17:11:34;;;;;;;;;;;;;;;;;;5052019;28;1505;-41
2023/02/15 17:14:14;;;;;;;;;;;;;;;;;;5052069;28;1688;-41
2023/02/15 17:16:48;;;;;;;;;;;;;;;;;;5052068;28;1875;-41
2023/02/15 17:19:16;;;;;;;;;;;;;;;;;;5051845;28;1885;-43
2023/02/15 17:21:48;;;;;;;;;;;;;;;;;;5052038;28;2092;-41
2023/02/15 17:24:22;;;;;;;;;;;;;;;;;;5051795;28;1659;-40
2023/02/15 17:26:51;;;;;;;;;;;;;;;;;;5051405;28;1904;-45
2023/02/15 17:29:34;;;;;;;;;;;;;;;;;;5051509;28;1638;-44
2023/02/15 17:32:01;;;;;;;;;;;;;;;;;;5051383;28;1707;-43
2023/02/15 17:34:42;;;;;;;;;;;;;;;;;;5051592;28;1955;-44
2023/02/15 17:37:30;;;;;;;;;;;;;;;;;;5051800;28;1906;-42
2023/02/15 17:39:59;;;;;;;;;;;;;;;;;;5051419;28;1984;-45
2023/02/15 17:42:26;;;;;;;;;;;;;;;;;;4988751;28;11428;-49
2023/02/15 17:44:53;;;;;;;;;;;;;;;;;;5077303;28;1916;-42
2023/02/15 17:47:22;;;;;;;;;;;;;;;;;;5091576;28;1391;-41
2023/02/15 17:49:49;;;;;;;;;;;;;;;;;;5091398;28;1875;-42
2023/02/15 17:52:17;;;;;;;;;;;;;;;;;;5091320;28;1767;-41
2023/02/15 17:57:30;;;;;;;;;;;;;;;;;;5091391;28;2149;-41
2023/02/15 18:13:48;;;;;;;;;;;;;;;;;;5111799;28;2084;-42
2023/02/15 18:16:18;;;;;;;;;;;;;;;;;;5111906;28;2035;-44